Time;durP1;ratioP1;P1;durP2;ratioP2;P2;SDS_P1;SDS_P2;PMS_P1;PMS_P2;Temp;Humidity;BMP_temperature;BMP_pressure;BME280_temperature;BME280_humidity;BME280_pressure;Samples;Min_cycle;Max_cycle;Signal;HPM_P1;HPM_P2
2022/01/24 00:00:25;;;;;;;15.70;11.32;;;5.90;99.90;;;;;;5006397;28;20050;-87
2022/01/24 00:02:50;;;;;;;18.40;12.95;;;5.90;99.90;;;;;;4990510;28;20049;-88
2022/01/24 00:05:19;;;;;;;17.23;12.90;;;5.90;99.90;;;;;;5008658;28;20049;-87
2022/01/24 00:07:44;;;;;;;18.15;12.77;;;5.90;99.90;;;;;;5007745;28;20862;-88
2022/01/24 00:10:15;;;;;;;18.13;13.27;;;5.90;99.90;;;;;;4992560;28;20038;-88
2022/01/24 00:12:58;;;;;;;16.70;12.70;;;5.90;99.90;;;;;;4991372;28;20053;-88
2022/01/24 00:18:14;;;;;;;18.08;12.52;;;5.90;99.90;;;;;;5007983;28;20045;-88
2022/01/24 00:26:43;;;;;;;18.48;13.38;;;5.80;99.90;;;;;;4976780;28;20054;-88
2022/01/24 00:26:55;;;;;;;17.30;13.18;;;5.80;99.90;;;;;;4970118;28;20053;-88
2022/01/24 00:29:16;;;;;;;18.05;13.35;;;5.90;99.90;;;;;;4966775;28;20106;-88
2022/01/24 00:31:42;;;;;;;16.25;12.93;;;5.90;99.90;;;;;;4997719;28;20053;-88
2022/01/24 00:34:07;;;;;;;17.38;13.30;;;5.80;99.90;;;;;;4971848;28;20039;-88
2022/01/24 00:36:33;;;;;;;17.55;13.52;;;5.80;99.90;;;;;;4987966;28;20133;-87
2022/01/24 00:38:59;;;;;;;19.33;12.85;;;5.90;99.90;;;;;;4972503;28;20041;-88
2022/01/24 00:41:24;;;;;;;18.13;13.18;;;5.90;99.90;;;;;;4972241;28;20077;-87
2022/01/24 00:46:40;;;;;;;17.55;13.18;;;5.90;99.90;;;;;;4991051;28;20050;-87
2022/01/24 00:57:00;;;;;;;17.20;12.88;;;5.80;99.90;;;;;;4992700;28;20410;-87
2022/01/24 00:59:26;;;;;;;17.30;12.73;;;5.80;99.90;;;;;;4992360;28;20053;-88
2022/01/24 01:01:52;;;;;;;17.73;14.07;;;5.80;99.90;;;;;;4991373;28;20054;-88
2022/01/24 01:04:20;;;;;;;17.67;13.38;;;5.80;99.90;;;;;;4975704;28;20137;-88
2022/01/24 01:06:46;;;;;;;19.05;14.18;;;5.80;99.90;;;;;;4991571;28;20100;-87
2022/01/24 01:20:10;;;;;;;18.40;13.48;;;5.80;99.90;;;;;;4991776;28;20515;-88
2022/01/24 01:22:35;;;;;;;18.85;12.50;;;5.80;99.90;;;;;;4990846;28;20046;-88
2022/01/24 01:25:01;;;;;;;17.73;13.35;;;5.80;99.90;;;;;;4991948;28;20042;-88
2022/01/24 01:27:37;;;;;;;17.98;12.93;;;5.80;99.90;;;;;;4971620;28;20049;-87
2022/01/24 01:30:14;;;;;;;17.10;13.45;;;5.70;99.90;;;;;;4972155;28;20069;-89
2022/01/24 01:54:21;;;;;;;19.88;13.68;;;5.70;99.90;;;;;;4990973;28;20050;-87
2022/01/24 01:56:46;;;;;;;20.20;15.32;;;5.70;99.90;;;;;;4990423;28;20508;-87
2022/01/24 01:59:12;;;;;;;18.80;14.93;;;5.70;99.90;;;;;;4974354;28;20042;-88
2022/01/24 02:01:37;;;;;;;20.30;13.70;;;5.70;99.90;;;;;;4991625;28;20096;-88
2022/01/24 02:04:05;;;;;;;20.17;14.57;;;5.70;99.90;;;;;;4992378;28;20081;-87
2022/01/24 02:06:31;;;;;;;19.65;14.27;;;5.70;99.90;;;;;;4990238;28;20414;-88
2022/01/24 02:08:59;;;;;;;20.75;15.88;;;5.70;99.90;;;;;;4991458;28;20496;-87
2022/01/24 02:11:25;;;;;;;20.73;15.65;;;5.70;99.90;;;;;;4990872;28;20097;-87
2022/01/24 02:13:50;;;;;;;20.55;16.70;;;5.70;99.90;;;;;;4989852;28;20061;-88
2022/01/24 02:19:27;;;;;;;24.17;16.30;;;5.70;99.90;;;;;;4963634;28;20116;-88
2022/01/24 02:24:25;;;;;;;23.67;18.30;;;5.70;99.90;;;;;;5013920;28;20049;-87
2022/01/24 02:26:55;;;;;;;22.90;17.85;;;5.70;99.90;;;;;;5013025;28;20053;-88
2022/01/24 02:31:56;;;;;;;23.50;17.35;;;5.70;99.90;;;;;;5030049;28;20053;-88
2022/01/24 02:34:36;;;;;;;23.77;18.85;;;5.70;99.90;;;;;;5017065;28;20044;-88
2022/01/24 02:37:05;;;;;;;23.77;18.08;;;5.60;99.90;;;;;;5015703;28;20077;-88
2022/01/24 02:39:55;;;;;;;22.05;17.13;;;5.70;99.90;;;;;;4990633;28;20049;-87
2022/01/24 02:53:08;;;;;;;24.27;18.73;;;5.60;99.90;;;;;;5013418;28;20502;-87
2022/01/24 02:55:36;;;;;;;23.70;17.35;;;5.60;99.90;;;;;;5011902;28;20119;-88
2022/01/24 02:58:02;;;;;;;26.75;18.73;;;5.60;99.90;;;;;;4997009;28;20037;-88
2022/01/24 03:00:27;;;;;;;23.65;18.63;;;5.60;99.90;;;;;;4996123;28;20048;-88
2022/01/24 03:02:53;;;;;;;25.85;18.05;;;5.60;99.90;;;;;;5028958;28;20472;-89
2022/01/24 03:05:18;;;;;;;24.98;19.00;;;5.60;99.90;;;;;;4996599;28;20075;-87
2022/01/24 03:07:44;;;;;;;25.05;17.98;;;5.60;99.90;;;;;;4994655;28;20141;-88
2022/01/24 03:10:24;;;;;;;25.23;19.40;;;5.60;99.90;;;;;;5012780;28;20064;-88
2022/01/24 03:12:59;;;;;;;23.65;17.20;;;5.60;99.90;;;;;;5011869;28;20046;-88
2022/01/24 03:15:25;;;;;;;24.58;18.58;;;5.60;99.90;;;;;;5012401;28;20048;-87
2022/01/24 03:17:51;;;;;;;26.50;19.65;;;5.60;99.90;;;;;;5012097;28;20045;-88
2022/01/24 03:20:16;;;;;;;25.42;17.40;;;5.60;99.90;;;;;;5012381;28;20460;-88
2022/01/24 03:22:42;;;;;;;25.58;18.40;;;5.60;99.90;;;;;;5012116;28;20046;-88
2022/01/24 03:25:08;;;;;;;25.27;17.60;;;5.60;99.90;;;;;;5012911;28;20107;-88
2022/01/24 03:27:33;;;;;;;23.85;19.08;;;5.60;99.90;;;;;;5010960;28;20037;-88
2022/01/24 03:29:59;;;;;;;23.33;18.08;;;5.60;99.90;;;;;;5012374;28;20544;-88
2022/01/24 03:32:24;;;;;;;25.17;19.33;;;5.60;99.90;;;;;;4995808;28;20041;-88
2022/01/24 03:34:50;;;;;;;23.38;19.00;;;5.60;99.90;;;;;;4995362;28;20045;-88
2022/01/24 03:37:15;;;;;;;24.20;18.30;;;5.60;99.90;;;;;;5012677;28;20132;-87
2022/01/24 03:39:41;;;;;;;25.92;20.60;;;5.60;99.90;;;;;;5011408;28;20033;-88
2022/01/24 03:42:07;;;;;;;25.80;19.00;;;5.60;99.90;;;;;;5012089;28;20053;-88
2022/01/24 03:44:32;;;;;;;24.98;19.70;;;5.60;99.90;;;;;;5011254;28;20041;-88
2022/01/24 03:52:08;;;;;;;26.60;20.77;;;5.60;99.90;;;;;;5028192;28;20079;-87
2022/01/24 03:54:34;;;;;;;25.30;20.05;;;5.70;99.90;;;;;;5010971;28;20452;-87
2022/01/24 03:57:00;;;;;;;25.45;19.25;;;5.70;99.90;;;;;;4995911;28;20041;-87
2022/01/24 03:59:25;;;;;;;25.73;19.52;;;5.70;99.90;;;;;;5011752;28;20590;-88
2022/01/24 04:01:51;;;;;;;23.63;18.65;;;5.70;99.90;;;;;;5011621;28;20049;-88
2022/01/24 04:04:17;;;;;;;26.02;17.73;;;5.60;99.90;;;;;;4994849;28;20498;-88
2022/01/24 04:06:42;;;;;;;25.00;18.88;;;5.60;99.90;;;;;;5010952;28;20433;-88
2022/01/24 04:09:08;;;;;;;26.00;19.00;;;5.60;99.90;;;;;;5011320;28;20525;-87
2022/01/24 04:11:37;;;;;;;25.42;19.92;;;5.60;99.90;;;;;;5010862;28;20497;-88
2022/01/24 04:14:24;;;;;;;24.35;19.27;;;5.60;99.90;;;;;;5012163;28;20053;-88
2022/01/24 04:17:04;;;;;;;25.52;18.65;;;5.60;99.90;;;;;;5010610;28;20053;-88
2022/01/24 04:21:58;;;;;;;25.15;18.35;;;5.60;99.90;;;;;;5011888;28;20413;-88
2022/01/24 04:24:25;;;;;;;24.08;17.35;;;5.60;99.90;;;;;;5011494;28;20037;-88
2022/01/24 04:26:51;;;;;;;23.10;17.02;;;5.60;99.90;;;;;;5011116;28;20127;-88
2022/01/24 04:29:16;;;;;;;21.15;15.38;;;5.60;99.90;;;;;;4995324;28;20038;-88
2022/01/24 04:31:44;;;;;;;20.63;17.40;;;5.60;99.90;;;;;;4994288;28;20090;-88
2022/01/24 04:34:10;;;;;;;21.65;15.27;;;5.60;99.90;;;;;;5010837;28;20132;-88
2022/01/24 04:36:36;;;;;;;23.27;17.95;;;5.60;99.90;;;;;;4992665;28;20049;-88
2022/01/24 04:39:03;;;;;;;21.27;16.90;;;5.60;99.90;;;;;;4994673;28;20489;-87
2022/01/24 04:41:34;;;;;;;19.88;14.82;;;5.60;99.90;;;;;;5010969;28;20361;-87
2022/01/24 04:46:55;;;;;;;20.67;16.33;;;5.60;99.90;;;;;;5010653;28;20411;-88
2022/01/24 04:55:02;;;;;;;22.42;15.82;;;5.60;99.90;;;;;;4911306;29;20471;-88
2022/01/24 04:57:29;;;;;;;21.95;15.27;;;5.60;99.90;;;;;;4932426;29;20146;-88
2022/01/24 04:59:57;;;;;;;20.52;15.70;;;5.60;99.90;;;;;;4932486;29;20053;-88
2022/01/24 05:02:24;;;;;;;21.20;16.85;;;5.50;99.90;;;;;;4913859;29;20055;-89
2022/01/24 05:04:52;;;;;;;21.10;16.42;;;5.50;99.90;;;;;;4907580;29;20246;-89
2022/01/24 05:07:17;;;;;;;20.27;15.00;;;5.60;99.90;;;;;;4932377;29;20054;-87
2022/01/24 05:09:50;;;;;;;20.38;15.77;;;5.50;99.90;;;;;;4931938;29;20055;-88
2022/01/24 05:12:30;;;;;;;20.20;16.15;;;5.60;99.90;;;;;;4932344;29;20055;-88
2022/01/24 05:25:54;;;;;;;18.70;15.02;;;5.50;99.90;;;;;;4932441;29;20134;-88
2022/01/24 05:28:21;;;;;;;19.33;14.95;;;5.60;99.90;;;;;;4922982;28;20061;-88
2022/01/24 05:30:49;;;;;;;21.67;15.48;;;5.60;99.90;;;;;;4996828;28;20391;-88
2022/01/24 05:33:15;;;;;;;20.48;16.10;;;5.50;99.90;;;;;;4995270;28;20041;-88
2022/01/24 05:35:40;;;;;;;19.92;16.30;;;5.60;99.90;;;;;;4994027;28;20064;-87
2022/01/24 05:38:06;;;;;;;20.08;15.55;;;5.50;99.90;;;;;;4993983;28;20048;-88
2022/01/24 05:40:33;;;;;;;21.35;16.23;;;5.50;99.90;;;;;;5010358;28;20042;-87
2022/01/24 05:42:59;;;;;;;20.13;16.02;;;5.50;99.90;;;;;;4995306;28;20038;-89
2022/01/24 05:45:24;;;;;;;19.67;14.68;;;5.50;99.90;;;;;;5011077;28;20044;-88
2022/01/24 05:47:50;;;;;;;21.23;16.30;;;5.50;99.90;;;;;;5010649;28;20328;-88
2022/01/24 05:50:16;;;;;;;21.17;16.15;;;5.50;99.90;;;;;;5010805;28;20057;-88
2022/01/24 05:52:41;;;;;;;21.58;16.65;;;5.50;99.90;;;;;;5000368;28;20053;-88
2022/01/24 05:55:08;;;;;;;22.58;16.70;;;5.50;99.90;;;;;;4993772;28;20390;-89
2022/01/24 05:57:34;;;;;;;21.77;16.67;;;5.50;99.90;;;;;;5007733;28;20528;-88
2022/01/24 05:59:59;;;;;;;22.73;16.45;;;5.50;99.90;;;;;;5010600;28;20038;-90
2022/01/24 06:02:26;;;;;;;21.75;15.80;;;5.50;99.90;;;;;;5010554;28;20157;-90
2022/01/24 06:04:52;;;;;;;21.65;16.33;;;5.50;99.90;;;;;;5011008;28;20048;-88
2022/01/24 06:07:17;;;;;;;22.48;15.23;;;5.50;99.90;;;;;;5011281;28;20046;-90
2022/01/24 06:09:43;;;;;;;21.77;17.65;;;5.50;99.90;;;;;;5011989;28;20042;-89
2022/01/24 06:12:10;;;;;;;28.45;20.45;;;5.50;99.90;;;;;;4995265;28;20394;-89
2022/01/24 06:14:36;;;;;;;27.05;20.15;;;5.50;99.90;;;;;;4995121;28;20041;-90
2022/01/24 06:17:01;;;;;;;30.92;22.73;;;5.50;99.90;;;;;;4994600;28;20045;-89
2022/01/24 06:19:27;;;;;;;39.75;29.48;;;5.50;99.90;;;;;;5012702;28;20116;-89
2022/01/24 06:21:52;;;;;;;41.55;30.85;;;5.50;99.90;;;;;;5016336;28;20168;-89
2022/01/24 06:24:18;;;;;;;41.55;31.00;;;5.50;99.90;;;;;;5028482;28;20086;-88
2022/01/24 06:26:43;;;;;;;45.40;30.40;;;5.50;99.90;;;;;;5034113;28;20045;-88
2022/01/24 06:29:10;;;;;;;36.17;24.95;;;5.50;99.90;;;;;;5023743;28;20044;-89
2022/01/24 06:31:36;;;;;;;41.00;26.55;;;5.50;99.90;;;;;;5000951;28;20417;-89
2022/01/24 06:34:02;;;;;;;38.10;28.42;;;5.50;99.90;;;;;;5015189;28;20041;-88
2022/01/24 06:36:28;;;;;;;37.65;27.77;;;5.50;99.90;;;;;;5013609;28;20045;-88
2022/01/24 06:38:53;;;;;;;39.25;28.10;;;5.60;99.90;;;;;;5013040;28;20037;-89
2022/01/24 06:41:25;;;;;;;36.80;27.80;;;5.60;99.90;;;;;;5012652;28;20111;-88
2022/01/24 06:43:51;;;;;;;33.10;26.35;;;5.60;99.90;;;;;;5013718;28;20046;-88
2022/01/24 06:46:16;;;;;;;36.17;24.20;;;5.60;99.90;;;;;;4994274;28;20068;-89
2022/01/24 06:48:42;;;;;;;32.08;24.65;;;5.60;99.90;;;;;;5009490;28;20044;-89
2022/01/24 06:51:10;;;;;;;34.70;24.27;;;5.50;99.90;;;;;;5013054;28;20037;-90
2022/01/24 06:53:37;;;;;;;36.33;26.17;;;5.50;99.90;;;;;;5010924;28;20045;-88
2022/01/24 06:56:07;;;;;;;37.40;27.33;;;5.50;99.90;;;;;;5029541;28;20111;-89
2022/01/24 06:58:34;;;;;;;39.20;28.48;;;5.50;99.90;;;;;;5013874;28;20081;-88
2022/01/24 07:01:01;;;;;;;41.92;29.98;;;5.60;99.90;;;;;;4997378;28;20269;-88
2022/01/24 07:03:26;;;;;;;41.78;29.80;;;5.50;99.90;;;;;;5012634;28;20445;-88
2022/01/24 07:05:52;;;;;;;42.22;30.85;;;5.50;99.90;;;;;;5011404;28;20050;-88
2022/01/24 07:08:18;;;;;;;46.17;32.85;;;5.60;99.90;;;;;;4996724;28;20073;-88
2022/01/24 07:10:44;;;;;;;46.88;32.17;;;5.60;99.90;;;;;;5011990;28;20107;-88
2022/01/24 07:13:09;;;;;;;43.88;29.58;;;5.50;99.90;;;;;;5012550;28;20049;-88
2022/01/24 07:15:44;;;;;;;47.70;31.88;;;5.50;99.90;;;;;;5013868;28;20052;-88
2022/01/24 07:20:54;;;;;;;44.92;32.65;;;5.50;99.90;;;;;;5018316;28;20069;-88
2022/01/24 07:23:20;;;;;;;44.33;32.42;;;5.50;99.90;;;;;;5021595;28;20048;-88
2022/01/24 07:25:45;;;;;;;45.80;32.13;;;5.50;99.90;;;;;;5002769;28;20425;-88
2022/01/24 07:28:12;;;;;;;45.30;29.67;;;5.60;99.90;;;;;;5013324;28;20441;-86
2022/01/24 07:30:38;;;;;;;42.53;31.08;;;5.50;99.90;;;;;;4996880;28;20127;-87
2022/01/24 07:33:04;;;;;;;48.17;33.25;;;5.50;99.90;;;;;;5011571;28;20140;-88
2022/01/24 07:35:29;;;;;;;47.95;35.22;;;5.50;99.90;;;;;;5028896;28;20034;-87
2022/01/24 07:37:55;;;;;;;52.90;33.05;;;5.50;99.90;;;;;;4994839;28;20082;-87
2022/01/24 07:40:22;;;;;;;52.03;36.33;;;5.50;99.90;;;;;;5030048;28;20037;-87
2022/01/24 07:45:17;;;;;;;65.28;46.58;;;5.50;99.90;;;;;;5012054;28;20046;-87
2022/01/24 07:47:42;;;;;;;65.47;45.47;;;5.50;99.90;;;;;;5010418;28;20060;-87
2022/01/24 07:50:09;;;;;;;64.95;42.58;;;5.60;99.90;;;;;;5011721;28;20042;-86
2022/01/24 07:52:35;;;;;;;65.85;42.30;;;5.50;99.90;;;;;;4993869;28;20443;-87
2022/01/24 07:55:01;;;;;;;66.10;45.53;;;5.50;99.90;;;;;;5010838;28;20049;-87
2022/01/24 07:57:27;;;;;;;79.68;45.28;;;5.60;99.90;;;;;;4994379;28;20053;-88
2022/01/24 07:59:52;;;;;;;74.85;44.65;;;5.50;99.90;;;;;;4994869;28;20410;-87
2022/01/24 08:02:18;;;;;;;65.85;42.88;;;5.60;99.90;;;;;;4994582;28;20346;-87
2022/01/24 08:04:43;;;;;;;64.70;46.67;;;5.50;99.90;;;;;;5011317;28;20045;-88
2022/01/24 08:07:09;;;;;;;65.32;47.75;;;5.60;99.90;;;;;;5011337;28;20045;-87
2022/01/24 08:09:34;;;;;;;70.13;48.95;;;5.60;99.90;;;;;;4994414;28;20049;-87
2022/01/24 08:12:01;;;;;;;67.03;48.25;;;5.60;99.90;;;;;;5010161;28;20163;-88
2022/01/24 08:14:27;;;;;;;65.47;49.08;;;5.60;99.90;;;;;;5027503;28;20085;-87
2022/01/24 08:16:53;;;;;;;66.20;46.00;;;5.60;99.90;;;;;;5010011;28;20057;-87
2022/01/24 08:19:19;;;;;;;70.30;48.03;;;5.60;99.90;;;;;;5010466;28;20508;-86
2022/01/24 08:21:45;;;;;;;67.32;48.63;;;5.60;99.90;;;;;;5010591;28;20049;-87
2022/01/24 08:24:12;;;;;;;70.75;47.53;;;5.60;99.90;;;;;;5008614;28;20493;-87
2022/01/24 08:26:38;;;;;;;65.47;50.03;;;5.60;99.90;;;;;;5008686;28;20402;-87
2022/01/24 08:29:04;;;;;;;70.35;50.00;;;5.70;99.90;;;;;;5004302;28;20490;-87
2022/01/24 08:31:30;;;;;;;68.72;51.25;;;5.70;99.90;;;;;;5001523;28;20442;-87
2022/01/24 08:33:56;;;;;;;72.75;51.75;;;5.70;99.90;;;;;;4987888;28;20045;-87
2022/01/24 08:36:21;;;;;;;68.35;45.50;;;5.70;99.90;;;;;;4977462;28;20042;-88
2022/01/24 08:38:50;;;;;;;70.68;45.00;;;5.70;99.90;;;;;;4989319;28;20049;-87
2022/01/24 08:41:24;;;;;;;66.43;50.08;;;5.70;99.90;;;;;;5010890;28;20049;-86
2022/01/24 08:43:57;;;;;;;71.60;47.53;;;5.70;99.90;;;;;;5026239;28;20049;-87
2022/01/24 08:46:23;;;;;;;72.90;51.60;;;5.70;99.90;;;;;;5010401;28;20127;-87
2022/01/24 08:48:49;;;;;;;65.38;49.53;;;5.80;99.90;;;;;;5007179;28;20029;-87
2022/01/24 08:51:15;;;;;;;69.30;48.67;;;5.80;99.90;;;;;;4990560;28;20104;-87
2022/01/24 08:53:41;;;;;;;67.55;49.55;;;5.80;99.90;;;;;;5007032;28;20394;-87
2022/01/24 08:56:10;;;;;;;70.18;47.40;;;5.80;99.90;;;;;;5009973;28;20104;-87
2022/01/24 08:58:37;;;;;;;67.70;48.92;;;5.80;99.90;;;;;;5006986;28;20052;-87
2022/01/24 09:01:03;;;;;;;70.72;49.45;;;5.80;99.90;;;;;;5026650;28;20122;-90
2022/01/24 09:03:32;;;;;;;65.75;44.63;;;5.80;99.90;;;;;;5008708;28;20181;-88
2022/01/24 09:05:59;;;;;;;67.40;48.45;;;5.80;99.90;;;;;;4998096;28;20050;-88
2022/01/24 09:08:25;;;;;;;66.47;45.30;;;5.80;99.90;;;;;;5016508;28;20390;-88
2022/01/24 09:10:52;;;;;;;70.82;47.15;;;5.80;99.90;;;;;;5014192;28;20142;-89
2022/01/24 09:13:19;;;;;;;74.78;46.45;;;5.80;99.90;;;;;;5014425;28;20094;-89
2022/01/24 09:15:45;;;;;;;69.00;45.15;;;5.80;99.90;;;;;;5031899;28;20049;-89
2022/01/24 09:18:11;;;;;;;65.65;45.28;;;5.80;99.90;;;;;;5014728;28;20040;-90
2022/01/24 09:20:40;;;;;;;67.40;45.80;;;5.80;99.90;;;;;;5011968;28;20414;-91
2022/01/24 09:23:08;;;;;;;67.35;45.92;;;5.80;99.90;;;;;;5030005;28;20386;-89
2022/01/24 09:25:35;;;;;;;67.68;48.22;;;5.80;99.90;;;;;;5031233;28;20127;-88
2022/01/24 09:28:01;;;;;;;66.70;47.70;;;5.90;99.90;;;;;;4997833;28;20045;-88
2022/01/24 09:30:26;;;;;;;68.78;48.15;;;5.90;99.90;;;;;;5013215;28;20038;-87
2022/01/24 09:32:52;;;;;;;68.95;48.58;;;5.90;99.90;;;;;;4998166;28;20091;-90
2022/01/24 09:35:20;;;;;;;68.50;48.65;;;5.90;99.90;;;;;;4997960;28;20116;-86
2022/01/24 09:37:47;;;;;;;61.25;45.53;;;5.90;99.90;;;;;;4996119;28;20045;-87
2022/01/24 09:40:15;;;;;;;62.88;45.83;;;6.00;99.90;;;;;;4997725;28;20042;-88
2022/01/24 09:42:42;;;;;;;66.57;47.28;;;5.90;99.90;;;;;;5014553;28;20132;-87
2022/01/24 09:45:09;;;;;;;64.80;45.42;;;5.90;99.90;;;;;;5017753;28;20030;-89
2022/01/24 09:47:35;;;;;;;68.97;48.30;;;6.00;99.90;;;;;;5032469;28;20136;-88
2022/01/24 09:50:02;;;;;;;61.83;46.08;;;6.00;99.90;;;;;;5001216;28;20069;-89
2022/01/24 09:52:28;;;;;;;60.58;45.63;;;5.90;99.90;;;;;;5036495;28;20045;-90
2022/01/24 09:54:54;;;;;;;66.43;45.67;;;6.00;99.90;;;;;;4998283;28;20108;-89
2022/01/24 09:57:19;;;;;;;62.03;43.22;;;5.90;99.90;;;;;;5013662;28;20049;-89
2022/01/24 09:59:45;;;;;;;62.25;46.05;;;5.90;99.90;;;;;;4996085;28;20053;-90
2022/01/24 10:02:11;;;;;;;63.17;44.40;;;5.90;99.90;;;;;;4995338;28;20038;-89
2022/01/24 10:04:37;;;;;;;63.55;42.65;;;5.90;99.90;;;;;;4992858;28;20041;-90
2022/01/24 10:07:17;;;;;;;62.85;45.13;;;5.90;99.90;;;;;;5014407;28;20085;-89
2022/01/24 10:09:45;;;;;;;66.78;43.90;;;5.90;99.90;;;;;;5030058;28;20129;-88
2022/01/24 10:12:33;;;;;;;59.08;43.95;;;5.90;99.90;;;;;;5032533;28;20033;-88
2022/01/24 10:17:46;;;;;;;60.20;42.40;;;5.90;99.90;;;;;;5013005;28;20530;-89
2022/01/24 10:20:21;;;;;;;64.25;42.38;;;5.90;99.90;;;;;;4996770;28;20057;-89
2022/01/24 10:23:00;;;;;;;61.40;45.10;;;5.90;99.90;;;;;;4996689;28;20075;-89
2022/01/24 10:25:26;;;;;;;59.55;41.92;;;5.90;99.90;;;;;;5029929;28;20116;-89
2022/01/24 10:28:04;;;;;;;61.92;42.13;;;5.90;99.90;;;;;;5012497;28;20120;-87
2022/01/24 10:30:31;;;;;;;61.70;45.30;;;5.90;99.90;;;;;;5012575;28;20053;-89
2022/01/24 10:32:59;;;;;;;60.22;41.83;;;5.90;99.90;;;;;;5012984;28;20072;-89
2022/01/24 10:35:44;;;;;;;59.45;45.10;;;5.90;99.90;;;;;;4981867;28;20681;-88
2022/01/24 10:38:42;;;;;;;61.63;43.47;;;6.00;99.90;;;;;;5003573;28;20041;-88
2022/01/24 10:41:25;;;;;;;60.50;44.55;;;6.00;99.90;;;;;;5010163;28;20077;-88
2022/01/24 10:43:55;;;;;;;61.03;44.05;;;6.00;99.90;;;;;;5030275;28;20061;-89
2022/01/24 10:46:27;;;;;;;60.20;45.03;;;6.00;99.90;;;;;;4996310;28;20454;-87
2022/01/24 10:49:06;;;;;;;63.47;46.95;;;6.00;99.90;;;;;;5028667;28;20038;-90
2022/01/24 10:51:40;;;;;;;61.60;45.63;;;6.00;99.90;;;;;;5012283;28;20042;-87
2022/01/24 10:54:06;;;;;;;63.15;45.75;;;6.10;99.90;;;;;;5012883;28;20049;-88
2022/01/24 10:56:39;;;;;;;65.90;44.50;;;6.10;99.90;;;;;;5009440;28;20470;-88
2022/01/24 10:59:17;;;;;;;63.38;43.85;;;6.10;99.90;;;;;;5011113;28;20556;-89
2022/01/24 11:01:57;;;;;;;63.85;47.13;;;6.10;99.90;;;;;;4995017;28;20120;-86
2022/01/24 11:04:24;;;;;;;65.57;44.67;;;6.10;99.90;;;;;;4997519;28;20046;-89
2022/01/24 11:06:52;;;;;;;64.38;47.53;;;6.10;99.90;;;;;;5006118;28;20405;-89
2022/01/24 11:09:23;;;;;;;60.55;44.67;;;6.10;99.90;;;;;;5012460;28;20048;-89
2022/01/24 11:12:15;;;;;;;64.93;44.55;;;6.10;99.90;;;;;;5010842;28;20060;-90
2022/01/24 11:14:43;;;;;;;59.10;43.08;;;6.10;99.90;;;;;;4991010;28;20088;-88
2022/01/24 11:17:13;;;;;;;56.00;41.97;;;6.10;99.90;;;;;;5011359;28;20080;-88
2022/01/24 11:19:43;;;;;;;54.50;40.95;;;6.10;99.90;;;;;;5030228;28;20094;-89
2022/01/24 11:22:20;;;;;;;50.55;38.78;;;6.10;99.90;;;;;;5011262;28;20069;-88
2022/01/24 11:24:57;;;;;;;49.17;38.25;;;6.00;99.90;;;;;;5029058;28;20213;-88
2022/01/24 11:27:25;;;;;;;48.25;37.55;;;6.00;99.90;;;;;;5026750;28;20048;-88
2022/01/24 11:29:52;;;;;;;48.90;35.92;;;6.00;99.90;;;;;;5029480;28;20464;-88
2022/01/24 11:32:27;;;;;;;46.35;37.45;;;5.90;99.90;;;;;;4995990;28;20398;-89
2022/01/24 11:34:55;;;;;;;48.97;37.80;;;6.00;99.90;;;;;;5011736;28;20053;-89
2022/01/24 11:37:53;;;;;;;45.20;36.63;;;6.00;99.90;;;;;;5012080;28;20144;-90
2022/01/24 11:40:24;;;;;;;47.42;35.47;;;5.90;99.90;;;;;;4976759;28;20119;-88
2022/01/24 11:42:51;;;;;;;;;;;5.90;99.90;;;;;;5005247;28;20318;-88
2022/01/24 11:45:32;;;;;;;45.55;35.88;;;5.90;99.90;;;;;;5029248;28;19921;-89
2022/01/24 11:48:14;;;;;;;43.63;32.20;;;5.90;99.90;;;;;;5009815;28;20368;-89
2022/01/24 11:50:40;;;;;;;44.33;35.55;;;5.90;99.90;;;;;;5009393;28;20045;-88
2022/01/24 11:53:37;;;;;;;41.83;34.60;;;5.90;99.90;;;;;;5010112;28;20048;-87
2022/01/24 11:56:31;;;;;;;42.72;35.95;;;5.90;99.90;;;;;;5013186;28;20045;-88
2022/01/24 11:59:19;;;;;;;42.42;35.55;;;5.90;99.90;;;;;;5023891;28;20049;-88
2022/01/24 12:01:47;;;;;;;45.55;36.25;;;5.90;99.90;;;;;;5011148;28;20314;-89
2022/01/24 12:04:13;;;;;;;45.30;32.65;;;5.90;99.90;;;;;;5010787;28;20048;-88
2022/01/24 12:07:17;;;;;;;40.20;35.28;;;6.00;99.90;;;;;;5010666;28;20486;-87
2022/01/24 12:09:43;;;;;;;38.75;33.90;;;6.00;99.90;;;;;;5026713;28;20051;-88
2022/01/24 12:12:44;;;;;;;41.95;33.85;;;6.00;99.90;;;;;;5010117;28;20037;-89
2022/01/24 12:15:30;;;;;;;43.42;33.10;;;6.00;99.90;;;;;;4992470;28;20104;-89
2022/01/24 12:17:57;;;;;;;42.17;35.88;;;5.90;99.90;;;;;;4995759;28;20395;-89
2022/01/24 12:20:33;;;;;;;43.65;33.97;;;6.00;99.90;;;;;;5005625;28;20140;-88
2022/01/24 12:23:20;;;;;;;42.63;36.20;;;5.90;99.90;;;;;;4994852;28;20054;-89
2022/01/24 12:26:02;;;;;;;41.63;33.10;;;6.00;99.90;;;;;;4988829;28;20058;-89
2022/01/24 12:28:31;;;;;;;41.53;35.40;;;6.00;99.90;;;;;;5028813;28;20053;-88
2022/01/24 12:31:02;;;;;;;46.58;36.97;;;6.00;99.90;;;;;;4996046;28;20390;-89
2022/01/24 12:33:40;;;;;;;44.97;35.25;;;6.00;99.90;;;;;;4994306;28;20051;-89
2022/01/24 12:36:12;;;;;;;50.25;36.88;;;6.10;99.90;;;;;;5027798;28;20046;-88
2022/01/24 12:38:52;;;;;;;52.40;40.53;;;6.10;99.90;;;;;;4993948;28;20125;-86
2022/01/24 12:41:35;;;;;;;56.25;41.33;;;6.00;99.90;;;;;;4996062;28;20045;-87
2022/01/24 12:46:30;;;;;;;44.60;37.10;;;6.00;99.90;;;;;;5015151;28;20061;-88
2022/01/24 12:49:01;;;;;;;49.88;37.75;;;5.90;99.90;;;;;;5025720;28;20041;-87
2022/01/24 12:51:29;;;;;;;48.72;37.72;;;5.90;99.90;;;;;;5032617;28;20037;-88
2022/01/24 12:53:56;;;;;;;47.65;36.13;;;6.00;99.90;;;;;;5018693;28;20071;-88
2022/01/24 12:56:29;;;;;;;43.70;37.17;;;6.00;99.90;;;;;;5015096;28;20088;-88
2022/01/24 12:58:55;;;;;;;46.67;37.65;;;5.90;99.90;;;;;;4998334;28;20057;-88
2022/01/24 13:01:27;;;;;;;47.70;39.13;;;6.00;99.90;;;;;;5013918;28;20056;-88
2022/01/24 13:03:56;;;;;;;48.13;36.72;;;6.00;99.90;;;;;;5013044;28;20045;-88
2022/01/24 13:06:22;;;;;;;46.58;38.10;;;6.00;99.90;;;;;;4997619;28;20045;-90
2022/01/24 13:08:56;;;;;;;49.80;39.83;;;6.00;99.90;;;;;;4998180;28;20041;-90
2022/01/24 13:11:22;;;;;;;42.63;36.78;;;6.00;99.90;;;;;;5015051;28;20042;-89
2022/01/24 13:14:19;;;;;;;42.00;33.42;;;6.00;99.90;;;;;;5014588;28;20103;-89
2022/01/24 13:22:43;;;;;;;44.05;34.65;;;5.90;99.90;;;;;;5014573;28;20514;-89
2022/01/24 13:25:13;;;;;;;42.90;37.80;;;6.00;99.90;;;;;;5031138;28;20041;-88
2022/01/24 13:27:47;;;;;;;43.72;35.28;;;6.00;99.90;;;;;;5012056;28;20187;-88
2022/01/24 13:30:23;;;;;;;47.08;38.90;;;5.90;99.90;;;;;;5032143;28;20131;-88
2022/01/24 13:32:58;;;;;;;39.33;34.95;;;5.90;99.90;;;;;;5009156;28;20405;-88
2022/01/24 13:35:31;;;;;;;39.30;32.28;;;5.90;99.90;;;;;;5014368;28;20125;-88
2022/01/24 13:37:59;;;;;;;39.67;35.47;;;5.90;99.90;;;;;;5004693;28;20053;-88
2022/01/24 13:40:55;;;;;;;38.30;33.25;;;5.90;99.90;;;;;;5010487;28;20046;-88
2022/01/24 13:43:44;;;;;;;36.63;32.83;;;5.90;99.90;;;;;;5031644;28;20049;-88
2022/01/24 13:46:19;;;;;;;38.05;33.13;;;5.90;99.90;;;;;;4993828;28;20445;-87
2022/01/24 13:48:48;;;;;;;38.30;34.40;;;5.90;99.90;;;;;;4995940;28;20049;-88
2022/01/24 13:51:19;;;;;;;38.25;34.25;;;5.90;99.90;;;;;;5012799;28;20056;-89
2022/01/24 13:53:53;;;;;;;41.45;37.20;;;5.80;99.90;;;;;;4994214;28;20413;-89
2022/01/24 13:56:22;;;;;;;40.88;36.47;;;5.80;99.90;;;;;;5012244;28;20096;-89
2022/01/24 13:59:06;;;;;;;39.50;33.70;;;5.90;99.90;;;;;;5029327;28;20455;-89
2022/01/24 14:01:33;;;;;;;37.22;33.33;;;5.80;99.90;;;;;;4997524;28;20044;-88
2022/01/24 14:04:02;;;;;;;36.40;32.53;;;5.80;99.90;;;;;;4996743;28;20080;-89
2022/01/24 14:06:36;;;;;;;34.55;29.70;;;5.80;99.90;;;;;;4997989;28;20509;-89
2022/01/24 14:09:06;;;;;;;37.67;33.63;;;5.70;99.90;;;;;;5031168;28;20046;-90
2022/01/24 14:11:32;;;;;;;37.53;33.60;;;5.70;99.90;;;;;;4996893;28;20149;-89
2022/01/24 14:14:04;;;;;;;35.30;31.55;;;5.70;99.90;;;;;;5001588;28;20378;-90
2022/01/24 14:16:41;;;;;;;;;;;5.70;99.90;;;;;;5016120;28;20124;-90
2022/01/24 14:19:07;;;;;;;32.97;29.13;;;5.70;99.90;;;;;;4997493;28;19921;-89
2022/01/24 14:21:33;;;;;;;34.00;30.30;;;5.70;99.90;;;;;;5011503;28;20076;-86
2022/01/24 14:24:00;;;;;;;34.60;28.48;;;5.70;99.90;;;;;;5010488;28;20053;-92
2022/01/24 14:26:28;;;;;;;34.75;29.17;;;5.70;99.90;;;;;;5012396;28;20700;-88
2022/01/24 14:29:09;;;;;;;35.30;31.15;;;5.70;99.90;;;;;;5008667;28;20053;-89
2022/01/24 14:31:35;;;;;;;33.60;29.73;;;5.70;99.90;;;;;;4992210;28;20049;-89
2022/01/24 14:34:04;;;;;;;34.30;28.15;;;5.60;99.90;;;;;;5010056;28;20092;-89
2022/01/24 14:36:30;;;;;;;36.72;32.65;;;5.60;99.90;;;;;;4989825;28;20072;-89
2022/01/24 14:39:03;;;;;;;36.30;32.53;;;5.60;99.90;;;;;;5009329;28;20042;-89
2022/01/24 14:41:45;;;;;;;36.45;32.63;;;5.60;99.90;;;;;;4992909;28;20141;-89